sensor_id;sensor_type;location;lat;lon;timestamp;P1;durP1;ratioP1;P2;durP2;ratioP2
69985;SDS011;57328;52.054;5.294;2023-12-22T00:00:42;2.70;;;0.82;;
69985;SDS011;57328;52.054;5.294;2023-12-22T00:03:09;7.10;;;0.85;;
69985;SDS011;57328;52.054;5.294;2023-12-22T00:05:36;8.40;;;1.02;;
69985;SDS011;57328;52.054;5.294;2023-12-22T00:08:04;10.48;;;0.90;;
69985;SDS011;57328;52.054;5.294;2023-12-22T00:10:31;11.50;;;1.20;;
69985;SDS011;57328;52.054;5.294;2023-12-22T00:12:58;11.88;;;1.35;;
69985;SDS011;57328;52.054;5.294;2023-12-22T00:15:26;11.02;;;1.58;;
69985;SDS011;57328;52.054;5.294;2023-12-22T00:17:53;5.45;;;1.08;;
69985;SDS011;57328;52.054;5.294;2023-12-22T00:20:20;12.18;;;1.40;;
69985;SDS011;57328;52.054;5.294;2023-12-22T00:22:47;10.05;;;1.35;;
69985;SDS011;57328;52.054;5.294;2023-12-22T00:25:14;4.50;;;0.98;;
69985;SDS011;57328;52.054;5.294;2023-12-22T00:27:42;10.57;;;1.40;;
69985;SDS011;57328;52.054;5.294;2023-12-22T00:30:09;4.38;;;0.82;;
69985;SDS011;57328;52.054;5.294;2023-12-22T00:32:36;4.88;;;0.77;;
69985;SDS011;57328;52.054;5.294;2023-12-22T00:35:04;1.08;;;0.30;;
69985;SDS011;57328;52.054;5.294;2023-12-22T00:37:31;3.53;;;0.60;;
69985;SDS011;57328;52.054;5.294;2023-12-22T00:39:58;5.40;;;0.75;;
69985;SDS011;57328;52.054;5.294;2023-12-22T00:42:26;2.75;;;0.40;;
69985;SDS011;57328;52.054;5.294;2023-12-22T00:44:53;3.15;;;0.57;;
69985;SDS011;57328;52.054;5.294;2023-12-22T00:47:20;4.82;;;0.73;;
69985;SDS011;57328;52.054;5.294;2023-12-22T00:49:47;0.50;;;0.20;;
69985;SDS011;57328;52.054;5.294;2023-12-22T00:52:14;2.58;;;0.70;;
69985;SDS011;57328;52.054;5.294;2023-12-22T00:54:42;4.20;;;0.80;;
69985;SDS011;57328;52.054;5.294;2023-12-22T00:57:09;4.72;;;0.50;;
69985;SDS011;57328;52.054;5.294;2023-12-22T00:59:37;10.45;;;0.90;;
69985;SDS011;57328;52.054;5.294;2023-12-22T01:02:04;3.38;;;0.63;;
69985;SDS011;57328;52.054;5.294;2023-12-22T01:04:31;6.63;;;1.63;;
69985;SDS011;57328;52.054;5.294;2023-12-22T01:06:59;6.55;;;1.00;;
69985;SDS011;57328;52.054;5.294;2023-12-22T01:09:26;6.90;;;1.20;;
69985;SDS011;57328;52.054;5.294;2023-12-22T01:11:53;5.82;;;0.80;;
69985;SDS011;57328;52.054;5.294;2023-12-22T01:14:20;9.90;;;1.27;;
69985;SDS011;57328;52.054;5.294;2023-12-22T01:16:47;5.40;;;0.57;;
69985;SDS011;57328;52.054;5.294;2023-12-22T01:19:15;10.85;;;1.10;;
69985;SDS011;57328;52.054;5.294;2023-12-22T01:21:42;4.72;;;0.50;;
69985;SDS011;57328;52.054;5.294;2023-12-22T01:24:09;9.45;;;1.13;;
69985;SDS011;57328;52.054;5.294;2023-12-22T01:26:36;9.43;;;1.30;;
69985;SDS011;57328;52.054;5.294;2023-12-22T01:29:04;4.65;;;1.27;;
69985;SDS011;57328;52.054;5.294;2023-12-22T01:31:31;5.75;;;0.77;;
69985;SDS011;57328;52.054;5.294;2023-12-22T01:33:58;6.95;;;0.85;;
69985;SDS011;57328;52.054;5.294;2023-12-22T01:36:25;5.65;;;0.95;;
69985;SDS011;57328;52.054;5.294;2023-12-22T01:38:53;7.18;;;0.90;;
69985;SDS011;57328;52.054;5.294;2023-12-22T01:41:20;15.63;;;1.52;;
69985;SDS011;57328;52.054;5.294;2023-12-22T01:43:47;8.75;;;0.85;;
69985;SDS011;57328;52.054;5.294;2023-12-22T01:46:14;11.93;;;1.13;;
69985;SDS011;57328;52.054;5.294;2023-12-22T01:48:41;11.45;;;1.35;;
69985;SDS011;57328;52.054;5.294;2023-12-22T01:51:09;8.90;;;1.50;;
69985;SDS011;57328;52.054;5.294;2023-12-22T01:53:36;10.10;;;1.75;;
69985;SDS011;57328;52.054;5.294;2023-12-22T01:58:32;6.78;;;1.17;;
69985;SDS011;57328;52.054;5.294;2023-12-22T02:01:01;13.00;;;1.40;;
69985;SDS011;57328;52.054;5.294;2023-12-22T02:03:29;10.95;;;1.30;;
69985;SDS011;57328;52.054;5.294;2023-12-22T02:05:57;17.88;;;1.80;;
69985;SDS011;57328;52.054;5.294;2023-12-22T02:08:24;12.98;;;1.45;;
69985;SDS011;57328;52.054;5.294;2023-12-22T02:10:52;18.35;;;1.58;;
69985;SDS011;57328;52.054;5.294;2023-12-22T02:13:20;8.57;;;1.20;;
69985;SDS011;57328;52.054;5.294;2023-12-22T02:15:47;13.35;;;1.50;;
69985;SDS011;57328;52.054;5.294;2023-12-22T02:18:21;10.25;;;1.40;;
69985;SDS011;57328;52.054;5.294;2023-12-22T02:20:49;12.80;;;1.63;;
69985;SDS011;57328;52.054;5.294;2023-12-22T02:23:17;16.15;;;1.35;;
69985;SDS011;57328;52.054;5.294;2023-12-22T02:25:44;15.23;;;1.77;;
69985;SDS011;57328;52.054;5.294;2023-12-22T02:28:13;11.18;;;1.63;;
69985;SDS011;57328;52.054;5.294;2023-12-22T02:33:11;13.73;;;2.13;;
69985;SDS011;57328;52.054;5.294;2023-12-22T02:35:40;16.55;;;2.20;;
69985;SDS011;57328;52.054;5.294;2023-12-22T02:38:08;17.42;;;1.95;;
69985;SDS011;57328;52.054;5.294;2023-12-22T02:40:36;10.25;;;1.42;;
69985;SDS011;57328;52.054;5.294;2023-12-22T02:43:04;12.57;;;1.90;;
69985;SDS011;57328;52.054;5.294;2023-12-22T02:45:32;10.73;;;1.58;;
69985;SDS011;57328;52.054;5.294;2023-12-22T02:48:00;11.68;;;1.10;;
69985;SDS011;57328;52.054;5.294;2023-12-22T02:50:27;22.20;;;2.00;;
69985;SDS011;57328;52.054;5.294;2023-12-22T02:52:54;9.10;;;1.30;;
69985;SDS011;57328;52.054;5.294;2023-12-22T02:55:22;16.17;;;2.30;;
69985;SDS011;57328;52.054;5.294;2023-12-22T02:57:49;13.55;;;2.13;;
69985;SDS011;57328;52.054;5.294;2023-12-22T03:00:16;14.15;;;1.70;;
69985;SDS011;57328;52.054;5.294;2023-12-22T03:02:44;13.77;;;1.65;;
69985;SDS011;57328;52.054;5.294;2023-12-22T03:05:11;11.07;;;1.35;;
69985;SDS011;57328;52.054;5.294;2023-12-22T03:07:39;17.42;;;1.52;;
69985;SDS011;57328;52.054;5.294;2023-12-22T03:10:06;15.50;;;1.48;;
69985;SDS011;57328;52.054;5.294;2023-12-22T03:12:33;8.88;;;1.85;;
69985;SDS011;57328;52.054;5.294;2023-12-22T03:15:00;8.40;;;1.27;;
69985;SDS011;57328;52.054;5.294;2023-12-22T03:17:29;11.00;;;1.85;;
69985;SDS011;57328;52.054;5.294;2023-12-22T03:19:56;12.35;;;1.58;;
69985;SDS011;57328;52.054;5.294;2023-12-22T03:22:23;13.75;;;1.85;;
69985;SDS011;57328;52.054;5.294;2023-12-22T03:24:51;17.17;;;1.98;;
69985;SDS011;57328;52.054;5.294;2023-12-22T03:27:18;8.95;;;1.38;;
69985;SDS011;57328;52.054;5.294;2023-12-22T03:29:46;12.20;;;1.88;;
69985;SDS011;57328;52.054;5.294;2023-12-22T03:32:13;15.25;;;1.63;;
69985;SDS011;57328;52.054;5.294;2023-12-22T03:34:40;13.50;;;1.60;;
69985;SDS011;57328;52.054;5.294;2023-12-22T03:37:08;7.50;;;1.38;;
69985;SDS011;57328;52.054;5.294;2023-12-22T03:39:35;13.23;;;1.50;;
69985;SDS011;57328;52.054;5.294;2023-12-22T03:42:02;14.85;;;2.78;;
69985;SDS011;57328;52.054;5.294;2023-12-22T03:44:29;17.50;;;1.85;;
69985;SDS011;57328;52.054;5.294;2023-12-22T03:46:56;11.32;;;1.92;;
69985;SDS011;57328;52.054;5.294;2023-12-22T03:49:24;19.52;;;2.05;;
69985;SDS011;57328;52.054;5.294;2023-12-22T03:51:51;16.50;;;1.63;;
69985;SDS011;57328;52.054;5.294;2023-12-22T03:54:18;13.13;;;1.50;;
69985;SDS011;57328;52.054;5.294;2023-12-22T03:56:45;11.95;;;1.38;;
69985;SDS011;57328;52.054;5.294;2023-12-22T03:59:12;17.48;;;1.50;;
69985;SDS011;57328;52.054;5.294;2023-12-22T04:01:40;11.70;;;2.17;;
69985;SDS011;57328;52.054;5.294;2023-12-22T04:04:07;12.45;;;1.45;;
69985;SDS011;57328;52.054;5.294;2023-12-22T04:06:37;16.48;;;2.08;;
69985;SDS011;57328;52.054;5.294;2023-12-22T04:09:05;12.07;;;1.67;;
69985;SDS011;57328;52.054;5.294;2023-12-22T04:11:32;8.75;;;1.50;;
69985;SDS011;57328;52.054;5.294;2023-12-22T04:14:05;11.85;;;2.05;;
69985;SDS011;57328;52.054;5.294;2023-12-22T04:16:32;15.43;;;2.45;;
69985;SDS011;57328;52.054;5.294;2023-12-22T04:18:59;12.05;;;1.48;;
69985;SDS011;57328;52.054;5.294;2023-12-22T04:21:27;18.10;;;1.65;;
69985;SDS011;57328;52.054;5.294;2023-12-22T04:23:54;10.70;;;1.95;;
69985;SDS011;57328;52.054;5.294;2023-12-22T04:26:21;9.20;;;1.42;;
69985;SDS011;57328;52.054;5.294;2023-12-22T04:28:49;16.90;;;1.67;;
69985;SDS011;57328;52.054;5.294;2023-12-22T04:31:16;17.90;;;1.90;;
69985;SDS011;57328;52.054;5.294;2023-12-22T04:33:43;13.32;;;2.35;;
69985;SDS011;57328;52.054;5.294;2023-12-22T04:36:10;14.38;;;2.00;;
69985;SDS011;57328;52.054;5.294;2023-12-22T04:38:38;12.93;;;1.58;;
69985;SDS011;57328;52.054;5.294;2023-12-22T04:41:06;13.20;;;1.95;;
69985;SDS011;57328;52.054;5.294;2023-12-22T04:43:33;10.82;;;1.70;;
69985;SDS011;57328;52.054;5.294;2023-12-22T04:46:01;12.93;;;1.75;;
69985;SDS011;57328;52.054;5.294;2023-12-22T04:48:28;16.65;;;2.58;;
69985;SDS011;57328;52.054;5.294;2023-12-22T04:50:56;9.77;;;2.00;;
69985;SDS011;57328;52.054;5.294;2023-12-22T04:53:23;12.98;;;2.15;;
69985;SDS011;57328;52.054;5.294;2023-12-22T04:55:50;15.07;;;2.15;;
69985;SDS011;57328;52.054;5.294;2023-12-22T04:58:18;16.60;;;1.80;;
69985;SDS011;57328;52.054;5.294;2023-12-22T05:00:45;9.60;;;1.60;;
69985;SDS011;57328;52.054;5.294;2023-12-22T05:03:12;8.73;;;1.35;;
69985;SDS011;57328;52.054;5.294;2023-12-22T05:05:39;14.38;;;1.90;;
69985;SDS011;57328;52.054;5.294;2023-12-22T05:08:07;12.98;;;1.70;;
69985;SDS011;57328;52.054;5.294;2023-12-22T05:10:35;13.30;;;1.90;;
69985;SDS011;57328;52.054;5.294;2023-12-22T05:13:02;15.85;;;1.95;;
69985;SDS011;57328;52.054;5.294;2023-12-22T05:15:30;12.15;;;1.75;;
69985;SDS011;57328;52.054;5.294;2023-12-22T05:17:57;13.82;;;1.75;;
69985;SDS011;57328;52.054;5.294;2023-12-22T05:20:24;15.77;;;1.92;;
69985;SDS011;57328;52.054;5.294;2023-12-22T05:22:51;13.98;;;1.65;;
69985;SDS011;57328;52.054;5.294;2023-12-22T05:25:19;13.20;;;2.72;;
69985;SDS011;57328;52.054;5.294;2023-12-22T05:27:46;10.05;;;1.40;;
69985;SDS011;57328;52.054;5.294;2023-12-22T05:30:13;13.45;;;2.17;;
69985;SDS011;57328;52.054;5.294;2023-12-22T05:32:41;14.00;;;2.03;;
69985;SDS011;57328;52.054;5.294;2023-12-22T05:35:08;6.13;;;1.08;;
69985;SDS011;57328;52.054;5.294;2023-12-22T05:37:36;8.25;;;1.48;;
69985;SDS011;57328;52.054;5.294;2023-12-22T05:40:04;14.13;;;2.25;;
69985;SDS011;57328;52.054;5.294;2023-12-22T05:45:00;8.90;;;1.23;;
69985;SDS011;57328;52.054;5.294;2023-12-22T05:47:27;14.52;;;2.03;;
69985;SDS011;57328;52.054;5.294;2023-12-22T05:49:55;10.52;;;1.38;;
69985;SDS011;57328;52.054;5.294;2023-12-22T05:52:22;13.10;;;1.60;;
69985;SDS011;57328;52.054;5.294;2023-12-22T05:54:49;8.98;;;1.55;;
69985;SDS011;57328;52.054;5.294;2023-12-22T05:57:17;11.18;;;1.85;;
69985;SDS011;57328;52.054;5.294;2023-12-22T05:59:44;11.63;;;1.50;;
69985;SDS011;57328;52.054;5.294;2023-12-22T06:02:11;18.17;;;2.97;;
69985;SDS011;57328;52.054;5.294;2023-12-22T06:04:40;10.52;;;1.50;;
69985;SDS011;57328;52.054;5.294;2023-12-22T06:07:07;13.52;;;1.58;;
69985;SDS011;57328;52.054;5.294;2023-12-22T06:09:34;11.27;;;1.10;;
69985;SDS011;57328;52.054;5.294;2023-12-22T06:12:02;11.93;;;1.30;;
69985;SDS011;57328;52.054;5.294;2023-12-22T06:14:29;11.05;;;1.63;;
69985;SDS011;57328;52.054;5.294;2023-12-22T06:16:57;4.78;;;1.20;;
69985;SDS011;57328;52.054;5.294;2023-12-22T06:19:25;9.88;;;1.80;;
69985;SDS011;57328;52.054;5.294;2023-12-22T06:21:55;7.85;;;1.40;;
69985;SDS011;57328;52.054;5.294;2023-12-22T06:24:22;15.90;;;1.85;;
69985;SDS011;57328;52.054;5.294;2023-12-22T06:26:49;13.63;;;1.42;;
69985;SDS011;57328;52.054;5.294;2023-12-22T06:29:16;14.50;;;1.83;;
69985;SDS011;57328;52.054;5.294;2023-12-22T06:31:44;9.18;;;1.50;;
69985;SDS011;57328;52.054;5.294;2023-12-22T06:34:11;9.85;;;1.40;;
69985;SDS011;57328;52.054;5.294;2023-12-22T06:36:38;13.02;;;1.33;;
69985;SDS011;57328;52.054;5.294;2023-12-22T06:39:05;13.18;;;2.00;;
69985;SDS011;57328;52.054;5.294;2023-12-22T06:41:32;18.63;;;1.88;;
69985;SDS011;57328;52.054;5.294;2023-12-22T06:44:00;12.52;;;1.77;;
69985;SDS011;57328;52.054;5.294;2023-12-22T06:46:28;14.20;;;1.80;;
69985;SDS011;57328;52.054;5.294;2023-12-22T06:51:25;12.05;;;1.83;;
69985;SDS011;57328;52.054;5.294;2023-12-22T06:53:53;8.82;;;1.42;;
69985;SDS011;57328;52.054;5.294;2023-12-22T06:56:22;21.63;;;2.75;;
69985;SDS011;57328;52.054;5.294;2023-12-22T06:58:51;13.98;;;2.33;;
69985;SDS011;57328;52.054;5.294;2023-12-22T07:01:24;14.75;;;1.65;;
69985;SDS011;57328;52.054;5.294;2023-12-22T07:03:52;16.67;;;2.42;;
69985;SDS011;57328;52.054;5.294;2023-12-22T07:06:19;14.55;;;2.15;;
69985;SDS011;57328;52.054;5.294;2023-12-22T07:11:33;15.77;;;2.45;;
69985;SDS011;57328;52.054;5.294;2023-12-22T07:14:03;18.88;;;2.83;;
69985;SDS011;57328;52.054;5.294;2023-12-22T07:16:30;17.77;;;3.05;;
69985;SDS011;57328;52.054;5.294;2023-12-22T07:18:58;15.40;;;2.83;;
69985;SDS011;57328;52.054;5.294;2023-12-22T07:21:26;20.23;;;2.65;;
69985;SDS011;57328;52.054;5.294;2023-12-22T07:23:53;21.63;;;2.75;;
69985;SDS011;57328;52.054;5.294;2023-12-22T07:26:20;17.10;;;2.83;;
69985;SDS011;57328;52.054;5.294;2023-12-22T07:28:48;25.38;;;2.95;;
69985;SDS011;57328;52.054;5.294;2023-12-22T07:31:18;23.50;;;3.25;;
69985;SDS011;57328;52.054;5.294;2023-12-22T07:33:46;21.58;;;3.13;;
69985;SDS011;57328;52.054;5.294;2023-12-22T07:36:14;15.55;;;2.08;;
69985;SDS011;57328;52.054;5.294;2023-12-22T07:38:41;25.15;;;3.33;;
69985;SDS011;57328;52.054;5.294;2023-12-22T07:41:08;18.25;;;2.38;;
69985;SDS011;57328;52.054;5.294;2023-12-22T07:46:05;19.85;;;2.42;;
69985;SDS011;57328;52.054;5.294;2023-12-22T07:48:32;22.77;;;3.63;;
69985;SDS011;57328;52.054;5.294;2023-12-22T07:50:59;26.65;;;3.05;;
69985;SDS011;57328;52.054;5.294;2023-12-22T07:53:26;22.55;;;2.67;;
69985;SDS011;57328;52.054;5.294;2023-12-22T07:55:54;16.08;;;2.75;;
69985;SDS011;57328;52.054;5.294;2023-12-22T07:58:22;20.48;;;2.53;;
69985;SDS011;57328;52.054;5.294;2023-12-22T08:00:49;24.25;;;3.70;;
69985;SDS011;57328;52.054;5.294;2023-12-22T08:03:16;41.72;;;5.40;;
69985;SDS011;57328;52.054;5.294;2023-12-22T08:05:43;21.38;;;2.60;;
69985;SDS011;57328;52.054;5.294;2023-12-22T08:08:11;28.13;;;3.22;;
69985;SDS011;57328;52.054;5.294;2023-12-22T08:10:38;21.25;;;2.85;;
69985;SDS011;57328;52.054;5.294;2023-12-22T08:13:05;20.23;;;2.88;;
69985;SDS011;57328;52.054;5.294;2023-12-22T08:15:32;20.95;;;2.97;;
69985;SDS011;57328;52.054;5.294;2023-12-22T08:18:02;12.13;;;1.95;;
69985;SDS011;57328;52.054;5.294;2023-12-22T08:20:30;14.20;;;2.17;;
69985;SDS011;57328;52.054;5.294;2023-12-22T08:23:03;17.25;;;2.10;;
69985;SDS011;57328;52.054;5.294;2023-12-22T08:25:36;9.32;;;1.85;;
69985;SDS011;57328;52.054;5.294;2023-12-22T08:28:05;12.63;;;1.65;;
69985;SDS011;57328;52.054;5.294;2023-12-22T08:30:33;10.60;;;1.25;;
69985;SDS011;57328;52.054;5.294;2023-12-22T08:33:00;8.57;;;1.20;;
69985;SDS011;57328;52.054;5.294;2023-12-22T08:35:28;10.73;;;1.40;;
69985;SDS011;57328;52.054;5.294;2023-12-22T08:37:55;11.07;;;1.52;;
69985;SDS011;57328;52.054;5.294;2023-12-22T08:42:53;11.77;;;1.65;;
69985;SDS011;57328;52.054;5.294;2023-12-22T08:45:21;12.43;;;2.25;;
69985;SDS011;57328;52.054;5.294;2023-12-22T08:47:48;9.95;;;1.88;;
69985;SDS011;57328;52.054;5.294;2023-12-22T08:50:15;12.48;;;2.15;;
69985;SDS011;57328;52.054;5.294;2023-12-22T08:52:43;13.23;;;1.77;;
69985;SDS011;57328;52.054;5.294;2023-12-22T08:55:10;11.23;;;1.98;;
69985;SDS011;57328;52.054;5.294;2023-12-22T08:57:37;10.27;;;1.85;;
69985;SDS011;57328;52.054;5.294;2023-12-22T09:00:15;17.17;;;1.85;;
69985;SDS011;57328;52.054;5.294;2023-12-22T09:02:42;12.07;;;1.65;;
69985;SDS011;57328;52.054;5.294;2023-12-22T09:05:09;10.70;;;1.60;;
69985;SDS011;57328;52.054;5.294;2023-12-22T09:07:37;10.15;;;1.25;;
69985;SDS011;57328;52.054;5.294;2023-12-22T09:10:05;17.25;;;2.00;;
69985;SDS011;57328;52.054;5.294;2023-12-22T09:12:34;8.23;;;1.70;;
69985;SDS011;57328;52.054;5.294;2023-12-22T09:15:01;14.25;;;1.52;;
69985;SDS011;57328;52.054;5.294;2023-12-22T09:17:29;4.65;;;0.85;;
69985;SDS011;57328;52.054;5.294;2023-12-22T09:19:57;7.82;;;1.50;;
69985;SDS011;57328;52.054;5.294;2023-12-22T09:22:24;12.32;;;1.90;;
69985;SDS011;57328;52.054;5.294;2023-12-22T09:24:51;11.23;;;1.60;;
69985;SDS011;57328;52.054;5.294;2023-12-22T09:27:19;12.00;;;1.45;;
69985;SDS011;57328;52.054;5.294;2023-12-22T09:29:46;5.68;;;1.20;;
69985;SDS011;57328;52.054;5.294;2023-12-22T09:32:13;8.50;;;1.75;;
69985;SDS011;57328;52.054;5.294;2023-12-22T09:34:40;8.00;;;1.38;;
69985;SDS011;57328;52.054;5.294;2023-12-22T09:37:08;9.15;;;1.63;;
69985;SDS011;57328;52.054;5.294;2023-12-22T09:39:35;12.23;;;1.70;;
69985;SDS011;57328;52.054;5.294;2023-12-22T09:42:03;9.30;;;1.58;;
69985;SDS011;57328;52.054;5.294;2023-12-22T09:44:31;9.63;;;1.55;;
69985;SDS011;57328;52.054;5.294;2023-12-22T09:47:03;6.00;;;1.00;;
69985;SDS011;57328;52.054;5.294;2023-12-22T09:49:34;11.18;;;1.30;;
69985;SDS011;57328;52.054;5.294;2023-12-22T09:52:04;11.20;;;1.92;;
69985;SDS011;57328;52.054;5.294;2023-12-22T09:54:33;9.73;;;1.25;;
69985;SDS011;57328;52.054;5.294;2023-12-22T09:57:01;9.55;;;1.40;;
69985;SDS011;57328;52.054;5.294;2023-12-22T09:59:45;9.82;;;0.98;;
69985;SDS011;57328;52.054;5.294;2023-12-22T10:02:14;5.55;;;1.05;;
69985;SDS011;57328;52.054;5.294;2023-12-22T10:04:41;7.50;;;1.60;;
69985;SDS011;57328;52.054;5.294;2023-12-22T10:07:09;2.70;;;0.98;;
69985;SDS011;57328;52.054;5.294;2023-12-22T10:09:40;8.13;;;1.15;;
69985;SDS011;57328;52.054;5.294;2023-12-22T10:12:08;11.63;;;1.42;;
69985;SDS011;57328;52.054;5.294;2023-12-22T10:14:36;6.40;;;0.95;;
69985;SDS011;57328;52.054;5.294;2023-12-22T10:17:06;9.68;;;1.92;;
69985;SDS011;57328;52.054;5.294;2023-12-22T10:19:33;8.80;;;1.30;;
69985;SDS011;57328;52.054;5.294;2023-12-22T10:22:01;9.90;;;1.92;;
69985;SDS011;57328;52.054;5.294;2023-12-22T10:24:41;3.92;;;0.98;;
69985;SDS011;57328;52.054;5.294;2023-12-22T10:27:10;9.25;;;1.30;;
69985;SDS011;57328;52.054;5.294;2023-12-22T10:29:37;9.27;;;1.05;;
69985;SDS011;57328;52.054;5.294;2023-12-22T10:32:06;8.10;;;1.20;;
69985;SDS011;57328;52.054;5.294;2023-12-22T10:34:34;6.72;;;1.70;;
69985;SDS011;57328;52.054;5.294;2023-12-22T10:37:02;8.82;;;1.48;;
69985;SDS011;57328;52.054;5.294;2023-12-22T10:39:29;4.38;;;1.00;;
69985;SDS011;57328;52.054;5.294;2023-12-22T10:41:57;5.35;;;1.20;;
69985;SDS011;57328;52.054;5.294;2023-12-22T10:44:28;6.70;;;1.30;;
69985;SDS011;57328;52.054;5.294;2023-12-22T10:46:56;4.53;;;1.00;;
69985;SDS011;57328;52.054;5.294;2023-12-22T10:49:24;6.95;;;1.10;;
69985;SDS011;57328;52.054;5.294;2023-12-22T10:51:51;5.53;;;1.40;;
69985;SDS011;57328;52.054;5.294;2023-12-22T10:54:19;5.53;;;1.02;;
69985;SDS011;57328;52.054;5.294;2023-12-22T10:56:46;5.65;;;0.95;;
69985;SDS011;57328;52.054;5.294;2023-12-22T10:59:16;8.07;;;0.82;;
69985;SDS011;57328;52.054;5.294;2023-12-22T11:01:43;5.65;;;1.10;;
69985;SDS011;57328;52.054;5.294;2023-12-22T11:04:13;6.72;;;0.93;;
69985;SDS011;57328;52.054;5.294;2023-12-22T11:06:43;9.45;;;1.35;;
69985;SDS011;57328;52.054;5.294;2023-12-22T11:09:12;11.55;;;1.45;;
69985;SDS011;57328;52.054;5.294;2023-12-22T11:11:40;6.35;;;1.23;;
69985;SDS011;57328;52.054;5.294;2023-12-22T11:14:08;7.75;;;1.10;;
69985;SDS011;57328;52.054;5.294;2023-12-22T11:16:36;10.60;;;1.98;;
69985;SDS011;57328;52.054;5.294;2023-12-22T11:19:03;8.93;;;1.23;;
69985;SDS011;57328;52.054;5.294;2023-12-22T11:21:31;4.95;;;1.02;;
69985;SDS011;57328;52.054;5.294;2023-12-22T11:23:59;4.93;;;1.00;;
69985;SDS011;57328;52.054;5.294;2023-12-22T11:26:26;4.70;;;1.05;;
69985;SDS011;57328;52.054;5.294;2023-12-22T11:28:53;5.15;;;1.00;;
69985;SDS011;57328;52.054;5.294;2023-12-22T11:31:22;5.88;;;0.90;;
69985;SDS011;57328;52.054;5.294;2023-12-22T11:33:50;8.63;;;1.20;;
69985;SDS011;57328;52.054;5.294;2023-12-22T11:36:30;8.32;;;1.08;;
69985;SDS011;57328;52.054;5.294;2023-12-22T11:38:58;5.88;;;1.02;;
69985;SDS011;57328;52.054;5.294;2023-12-22T11:41:27;7.15;;;1.27;;
69985;SDS011;57328;52.054;5.294;2023-12-22T11:43:55;5.93;;;1.15;;
69985;SDS011;57328;52.054;5.294;2023-12-22T11:46:23;8.18;;;1.15;;
69985;SDS011;57328;52.054;5.294;2023-12-22T11:48:51;3.33;;;0.80;;
69985;SDS011;57328;52.054;5.294;2023-12-22T11:51:19;6.55;;;1.27;;
69985;SDS011;57328;52.054;5.294;2023-12-22T11:53:47;9.15;;;1.05;;
69985;SDS011;57328;52.054;5.294;2023-12-22T11:56:14;6.68;;;1.23;;
69985;SDS011;57328;52.054;5.294;2023-12-22T11:58:45;8.05;;;0.90;;
69985;SDS011;57328;52.054;5.294;2023-12-22T12:01:18;6.05;;;1.10;;
69985;SDS011;57328;52.054;5.294;2023-12-22T12:06:17;8.82;;;1.23;;
69985;SDS011;57328;52.054;5.294;2023-12-22T12:08:48;6.40;;;0.90;;
69985;SDS011;57328;52.054;5.294;2023-12-22T12:11:17;11.85;;;1.40;;
69985;SDS011;57328;52.054;5.294;2023-12-22T12:13:45;7.40;;;0.80;;
69985;SDS011;57328;52.054;5.294;2023-12-22T12:16:19;5.30;;;0.90;;
69985;SDS011;57328;52.054;5.294;2023-12-22T12:18:50;3.83;;;0.90;;
69985;SDS011;57328;52.054;5.294;2023-12-22T12:21:20;6.82;;;1.30;;
69985;SDS011;57328;52.054;5.294;2023-12-22T12:23:47;5.13;;;0.65;;
69985;SDS011;57328;52.054;5.294;2023-12-22T12:26:16;8.75;;;1.25;;
69985;SDS011;57328;52.054;5.294;2023-12-22T12:28:44;9.77;;;1.40;;
69985;SDS011;57328;52.054;5.294;2023-12-22T12:31:12;6.05;;;1.15;;
69985;SDS011;57328;52.054;5.294;2023-12-22T12:33:39;5.93;;;0.93;;
69985;SDS011;57328;52.054;5.294;2023-12-22T12:36:07;6.63;;;1.30;;
69985;SDS011;57328;52.054;5.294;2023-12-22T12:41:05;5.32;;;0.80;;
69985;SDS011;57328;52.054;5.294;2023-12-22T12:43:32;8.25;;;1.25;;
69985;SDS011;57328;52.054;5.294;2023-12-22T12:46:03;6.05;;;0.85;;
69985;SDS011;57328;52.054;5.294;2023-12-22T12:48:31;5.47;;;0.95;;
69985;SDS011;57328;52.054;5.294;2023-12-22T12:51:03;5.30;;;0.90;;
69985;SDS011;57328;52.054;5.294;2023-12-22T12:53:33;8.80;;;1.02;;
69985;SDS011;57328;52.054;5.294;2023-12-22T12:56:03;8.32;;;1.25;;
69985;SDS011;57328;52.054;5.294;2023-12-22T12:58:31;5.55;;;0.88;;
69985;SDS011;57328;52.054;5.294;2023-12-22T13:01:09;7.57;;;0.95;;
69985;SDS011;57328;52.054;5.294;2023-12-22T13:03:55;6.15;;;0.90;;
69985;SDS011;57328;52.054;5.294;2023-12-22T13:06:22;5.53;;;1.00;;
69985;SDS011;57328;52.054;5.294;2023-12-22T13:08:50;9.02;;;0.80;;
69985;SDS011;57328;52.054;5.294;2023-12-22T13:11:21;9.27;;;1.30;;
69985;SDS011;57328;52.054;5.294;2023-12-22T13:13:48;13.25;;;1.33;;
69985;SDS011;57328;52.054;5.294;2023-12-22T13:16:19;6.35;;;1.35;;
69985;SDS011;57328;52.054;5.294;2023-12-22T13:18:47;5.75;;;1.17;;
69985;SDS011;57328;52.054;5.294;2023-12-22T13:21:15;5.70;;;1.05;;
69985;SDS011;57328;52.054;5.294;2023-12-22T13:23:42;7.20;;;0.82;;
69985;SDS011;57328;52.054;5.294;2023-12-22T13:26:19;4.10;;;1.08;;
69985;SDS011;57328;52.054;5.294;2023-12-22T13:28:46;7.55;;;1.02;;
69985;SDS011;57328;52.054;5.294;2023-12-22T13:31:14;6.50;;;1.00;;
69985;SDS011;57328;52.054;5.294;2023-12-22T13:33:44;9.35;;;1.90;;
69985;SDS011;57328;52.054;5.294;2023-12-22T13:36:11;7.20;;;1.00;;
69985;SDS011;57328;52.054;5.294;2023-12-22T13:38:39;6.80;;;0.93;;
69985;SDS011;57328;52.054;5.294;2023-12-22T13:41:06;10.00;;;1.50;;
69985;SDS011;57328;52.054;5.294;2023-12-22T13:46:02;7.70;;;1.08;;
69985;SDS011;57328;52.054;5.294;2023-12-22T13:48:30;5.50;;;0.85;;
69985;SDS011;57328;52.054;5.294;2023-12-22T13:50:57;7.63;;;1.40;;
69985;SDS011;57328;52.054;5.294;2023-12-22T13:53:25;7.13;;;0.90;;
69985;SDS011;57328;52.054;5.294;2023-12-22T13:58:22;4.75;;;0.88;;
69985;SDS011;57328;52.054;5.294;2023-12-22T14:00:50;8.20;;;1.00;;
69985;SDS011;57328;52.054;5.294;2023-12-22T14:03:18;4.45;;;0.77;;
69985;SDS011;57328;52.054;5.294;2023-12-22T14:05:48;6.93;;;0.88;;
69985;SDS011;57328;52.054;5.294;2023-12-22T14:08:16;10.35;;;1.30;;
69985;SDS011;57328;52.054;5.294;2023-12-22T14:10:46;4.78;;;1.02;;
69985;SDS011;57328;52.054;5.294;2023-12-22T14:13:15;9.43;;;1.48;;
69985;SDS011;57328;52.054;5.294;2023-12-22T14:15:42;3.45;;;0.93;;
69985;SDS011;57328;52.054;5.294;2023-12-22T14:18:11;12.30;;;1.30;;
69985;SDS011;57328;52.054;5.294;2023-12-22T14:20:38;8.65;;;1.08;;
69985;SDS011;57328;52.054;5.294;2023-12-22T14:23:06;6.13;;;1.35;;
69985;SDS011;57328;52.054;5.294;2023-12-22T14:25:37;10.70;;;1.20;;
69985;SDS011;57328;52.054;5.294;2023-12-22T14:28:04;5.20;;;0.98;;
69985;SDS011;57328;52.054;5.294;2023-12-22T14:30:31;8.00;;;1.00;;
69985;SDS011;57328;52.054;5.294;2023-12-22T14:33:00;4.25;;;1.10;;
69985;SDS011;57328;52.054;5.294;2023-12-22T14:35:27;7.72;;;1.08;;
69985;SDS011;57328;52.054;5.294;2023-12-22T14:37:54;7.30;;;1.33;;
69985;SDS011;57328;52.054;5.294;2023-12-22T14:40:22;14.02;;;1.48;;
69985;SDS011;57328;52.054;5.294;2023-12-22T14:42:50;10.95;;;1.23;;
69985;SDS011;57328;52.054;5.294;2023-12-22T14:45:18;7.90;;;1.25;;
69985;SDS011;57328;52.054;5.294;2023-12-22T14:47:45;7.28;;;1.60;;
69985;SDS011;57328;52.054;5.294;2023-12-22T14:52:42;7.57;;;1.92;;
69985;SDS011;57328;52.054;5.294;2023-12-22T14:55:09;8.65;;;1.35;;
69985;SDS011;57328;52.054;5.294;2023-12-22T14:57:36;8.82;;;1.33;;
69985;SDS011;57328;52.054;5.294;2023-12-22T15:00:04;8.85;;;1.92;;
69985;SDS011;57328;52.054;5.294;2023-12-22T15:02:32;11.93;;;1.45;;
69985;SDS011;57328;52.054;5.294;2023-12-22T15:05:00;11.65;;;1.05;;
69985;SDS011;57328;52.054;5.294;2023-12-22T15:07:27;5.65;;;1.10;;
69985;SDS011;57328;52.054;5.294;2023-12-22T15:09:55;10.73;;;1.30;;
69985;SDS011;57328;52.054;5.294;2023-12-22T15:12:22;8.77;;;1.27;;
69985;SDS011;57328;52.054;5.294;2023-12-22T15:14:49;8.18;;;1.42;;